Aviation Digital Data Service (ADDS)

Output produced by METARs form (1229 UTC 19 January 2019)
found at http://www.aviationweather.gov/metar/data/
 
METAR text: TFFR 191200Z AUTO 21007KT 180V240 CAVOK 24/20 Q1018 BECMG 11010KT
Conditions at: TFFR (LE RAIZET , GP) observed 1200 UTC 19 January 2019
Temperature: 24.0°C (75°F)
Dewpoint: 20.0°C (68°F) [RH = 78%]
Pressure (altimeter): 30.06 inches Hg (1018.0 mb)
Winds: from the SSW (210 degrees) at 8 MPH (7 knots; 3.6 m/s)
Visibility: 6 or more miles (10+ km)
Ceiling: ceiling and visibility are OK
Clouds: unknown
Weather: no significant weather observed at this time

METAR text: TFFR 191130Z AUTO 21006KT 9999 FEW058 SCT074 BKN096 22/20 Q1017 BECMG 11010KT
Conditions at: TFFR (LE RAIZET , GP) observed 1130 UTC 19 January 2019
Temperature: 22.0°C (72°F)
Dewpoint: 20.0°C (68°F) [RH = 88%]
Pressure (altimeter): 30.03 inches Hg (1017.0 mb)
Winds: from the SSW (210 degrees) at 7 MPH (6 knots; 3.1 m/s)
Visibility: 6 or more miles (10+ km)
Ceiling: 9600 feet AGL
Clouds: few clouds at 5800 feet AGL
scattered clouds at 7400 feet AGL
broken clouds at 9600 feet AGL
Weather: no significant weather observed at this time

METAR text: TFFR 191100Z AUTO VRB03KT 9999 FEW043 BKN054 OVC068 22/19 Q1017 TEMPO 4000 SHRA SCT015TCU
Conditions at: TFFR (LE RAIZET , GP) observed 1100 UTC 19 January 2019
Temperature: 22.0°C (72°F)
Dewpoint: 19.0°C (66°F) [RH = 83%]
Pressure (altimeter): 30.03 inches Hg (1017.0 mb)
Winds: variable direction winds at 3 MPH (3 knots; 1.5 m/s)
Visibility: 6 or more miles (10+ km)
Ceiling: 5400 feet AGL
Clouds: few clouds at 4300 feet AGL
broken clouds at 5400 feet AGL
overcast cloud deck at 6800 feet AGL
Weather: no significant weather observed at this time

METAR text: TFFR 191030Z AUTO 16003KT 9999 BKN054 OVC070 22/19 Q1017 TEMPO 4000 SHRA SCT015TCU
Conditions at: TFFR (LE RAIZET , GP) observed 1030 UTC 19 January 2019
Temperature: 22.0°C (72°F)
Dewpoint: 19.0°C (66°F) [RH = 83%]
Pressure (altimeter): 30.03 inches Hg (1017.0 mb)
Winds: from the SSE (160 degrees) at 3 MPH (3 knots; 1.5 m/s)
Visibility: 6 or more miles (10+ km)
Ceiling: 5400 feet AGL
Clouds: broken clouds at 5400 feet AGL
overcast cloud deck at 7000 feet AGL
Weather: no significant weather observed at this time

METAR text: TFFR 191000Z AUTO VRB01KT 9999 BKN045/// BKN060/// OVC072/// ///TCU 22/19 Q1016 TEMPO 4000 SHRA
Conditions at: TFFR (LE RAIZET , GP) observed 1000 UTC 19 January 2019
Temperature: 22.0°C (72°F)
Dewpoint: 19.0°C (66°F) [RH = 83%]
Pressure (altimeter): 30.00 inches Hg (1016.0 mb)
Winds: variable direction winds at 1 MPH (1 knots; 0.5 m/s)
Visibility: 6 or more miles (10+ km)
Ceiling: 4500 feet AGL
Clouds: broken clouds at 4500 feet AGL
broken clouds at 6000 feet AGL
overcast cloud deck at 7200 feet AGL
Weather: no significant weather observed at this time

METAR text: TFFR 190930Z AUTO 05006KT 9999 BKN049/// BKN060/// OVC070/// ///TCU 22/19 Q1016 TEMPO 4000 SHRA
Conditions at: TFFR (LE RAIZET , GP) observed 0930 UTC 19 January 2019
Temperature: 22.0°C (72°F)
Dewpoint: 19.0°C (66°F) [RH = 83%]
Pressure (altimeter): 30.00 inches Hg (1016.0 mb)
Winds: from the NE (50 degrees) at 7 MPH (6 knots; 3.1 m/s)
Visibility: 6 or more miles (10+ km)
Ceiling: 4900 feet AGL
Clouds: broken clouds at 4900 feet AGL
broken clouds at 6000 feet AGL
overcast cloud deck at 7000 feet AGL
Weather: no significant weather observed at this time

METAR text: TFFR 190900Z AUTO 04006KT 9999 OVC043/// ///TCU 22/19 Q1016 TEMPO 4000 SHRA
Conditions at: TFFR (LE RAIZET , GP) observed 0900 UTC 19 January 2019
Temperature: 22.0°C (72°F)
Dewpoint: 19.0°C (66°F) [RH = 83%]
Pressure (altimeter): 30.00 inches Hg (1016.0 mb)
Winds: from the NE (40 degrees) at 7 MPH (6 knots; 3.1 m/s)
Visibility: 6 or more miles (10+ km)
Ceiling: 4300 feet AGL
Clouds: overcast cloud deck at 4300 feet AGL
Weather: no significant weather observed at this time

METAR text: TFFR 190830Z AUTO 04003KT 010V070 9999 BKN039/// BKN045/// OVC052/// ///TCU 22/20 Q1015 TEMPO 4000 SHRA
Conditions at: TFFR (LE RAIZET , GP) observed 0830 UTC 19 January 2019
Temperature: 22.0°C (72°F)
Dewpoint: 20.0°C (68°F) [RH = 88%]
Pressure (altimeter): 29.97 inches Hg (1015.0 mb)
Winds: from the NE (40 degrees) at 3 MPH (3 knots; 1.5 m/s)
Visibility: 6 or more miles (10+ km)
Ceiling: 3900 feet AGL
Clouds: broken clouds at 3900 feet AGL
broken clouds at 4500 feet AGL
overcast cloud deck at 5200 feet AGL
Weather: no significant weather observed at this time

METAR text: TFFR 190800Z AUTO 31002KT 9999 BKN047 BKN058 OVC074 22/21 Q1015 TEMPO 4000 SHRA SCT015TCU
Conditions at: TFFR (LE RAIZET , GP) observed 0800 UTC 19 January 2019
Temperature: 22.0°C (72°F)
Dewpoint: 21.0°C (70°F) [RH = 94%]
Pressure (altimeter): 29.97 inches Hg (1015.0 mb)
Winds: from the NW (310 degrees) at 2 MPH (2 knots; 1.0 m/s)
Visibility: 6 or more miles (10+ km)
Ceiling: 4700 feet AGL
Clouds: broken clouds at 4700 feet AGL
broken clouds at 5800 feet AGL
overcast cloud deck at 7400 feet AGL
Weather: no significant weather observed at this time

METAR text: TFFR 190730Z AUTO VRB02KT 9999 FEW029 SCT056 BKN076 22/20 Q1015 TEMPO 4000 SHRA SCT015TCU
Conditions at: TFFR (LE RAIZET , GP) observed 0730 UTC 19 January 2019
Temperature: 22.0°C (72°F)
Dewpoint: 20.0°C (68°F) [RH = 88%]
Pressure (altimeter): 29.97 inches Hg (1015.0 mb)
Winds: variable direction winds at 2 MPH (2 knots; 1.0 m/s)
Visibility: 6 or more miles (10+ km)
Ceiling: 7600 feet AGL
Clouds: few clouds at 2900 feet AGL
scattered clouds at 5600 feet AGL
broken clouds at 7600 feet AGL
Weather: no significant weather observed at this time

METAR text: TFFR 190700Z AUTO 31003KT 9999 FEW030 SCT050 OVC086 21/20 Q1015 TEMPO 4000 SHRA SCT015TCU
Conditions at: TFFR (LE RAIZET , GP) observed 0700 UTC 19 January 2019
Temperature: 21.0°C (70°F)
Dewpoint: 20.0°C (68°F) [RH = 94%]
Pressure (altimeter): 29.97 inches Hg (1015.0 mb)
Winds: from the NW (310 degrees) at 3 MPH (3 knots; 1.5 m/s)
Visibility: 6 or more miles (10+ km)
Ceiling: 8600 feet AGL
Clouds: few clouds at 3000 feet AGL
scattered clouds at 5000 feet AGL
overcast cloud deck at 8600 feet AGL
Weather: no significant weather observed at this time

METAR text: TFFR 190630Z AUTO 33003KT 9999 FEW030 BKN052 OVC090 21/20 Q1016 TEMPO 4000 SHRA SCT015TCU
Conditions at: TFFR (LE RAIZET , GP) observed 0630 UTC 19 January 2019
Temperature: 21.0°C (70°F)
Dewpoint: 20.0°C (68°F) [RH = 94%]
Pressure (altimeter): 30.00 inches Hg (1016.0 mb)
Winds: from the NNW (330 degrees) at 3 MPH (3 knots; 1.5 m/s)
Visibility: 6 or more miles (10+ km)
Ceiling: 5200 feet AGL
Clouds: few clouds at 3000 feet AGL
broken clouds at 5200 feet AGL
overcast cloud deck at 9000 feet AGL
Weather: no significant weather observed at this time

METAR text: TFFR 190600Z AUTO VRB02KT 9999 OVC050 21/20 Q1016 TEMPO 4000 SHRA SCT015TCU
Conditions at: TFFR (LE RAIZET , GP) observed 0600 UTC 19 January 2019
Temperature: 21.0°C (70°F)
Dewpoint: 20.0°C (68°F) [RH = 94%]
Pressure (altimeter): 30.00 inches Hg (1016.0 mb)
Winds: variable direction winds at 2 MPH (2 knots; 1.0 m/s)
Visibility: 6 or more miles (10+ km)
Ceiling: 5000 feet AGL
Clouds: overcast cloud deck at 5000 feet AGL
Weather: no significant weather observed at this time

METAR text: TFFR 190530Z AUTO 35004KT 9999 BKN052 22/20 Q1016 TEMPO 4000 SHRA SCT015TCU
Conditions at: TFFR (LE RAIZET , GP) observed 0530 UTC 19 January 2019
Temperature: 22.0°C (72°F)
Dewpoint: 20.0°C (68°F) [RH = 88%]
Pressure (altimeter): 30.00 inches Hg (1016.0 mb)
Winds: from the N (350 degrees) at 5 MPH (4 knots; 2.1 m/s)
Visibility: 6 or more miles (10+ km)
Ceiling: 5200 feet AGL
Clouds: broken clouds at 5200 feet AGL
Weather: no significant weather observed at this time

METAR text: TFFR 190500Z AUTO VRB02KT 9999 SCT034 SCT042 23/20 Q1016 TEMPO 4000 SHRA SCT015TCU BKN020
Conditions at: TFFR (LE RAIZET , GP) observed 0500 UTC 19 January 2019
Temperature: 23.0°C (73°F)
Dewpoint: 20.0°C (68°F) [RH = 83%]
Pressure (altimeter): 30.00 inches Hg (1016.0 mb)
Winds: variable direction winds at 2 MPH (2 knots; 1.0 m/s)
Visibility: 6 or more miles (10+ km)
Ceiling: at least 12,000 feet AGL
Clouds: scattered clouds at 3400 feet AGL
scattered clouds at 4200 feet AGL
Weather: no significant weather observed at this time

METAR text: TFFR 190430Z AUTO VRB02KT 9999 SCT030 BKN090 22/20 Q1017 TEMPO 4000 SHRA SCT015TCU BKN020
Conditions at: TFFR (LE RAIZET , GP) observed 0430 UTC 19 January 2019
Temperature: 22.0°C (72°F)
Dewpoint: 20.0°C (68°F) [RH = 88%]
Pressure (altimeter): 30.03 inches Hg (1017.0 mb)
Winds: variable direction winds at 2 MPH (2 knots; 1.0 m/s)
Visibility: 6 or more miles (10+ km)
Ceiling: 9000 feet AGL
Clouds: scattered clouds at 3000 feet AGL
broken clouds at 9000 feet AGL
Weather: no significant weather observed at this time

METAR text: TFFR 190400Z AUTO 03002KT 9999 FEW030 OVC090 22/20 Q1017 TEMPO 4000 SHRA SCT015TCU BKN020
Conditions at: TFFR (LE RAIZET , GP) observed 0400 UTC 19 January 2019
Temperature: 22.0°C (72°F)
Dewpoint: 20.0°C (68°F) [RH = 88%]
Pressure (altimeter): 30.03 inches Hg (1017.0 mb)
Winds: from the NNE (30 degrees) at 2 MPH (2 knots; 1.0 m/s)
Visibility: 6 or more miles (10+ km)
Ceiling: 9000 feet AGL
Clouds: few clouds at 3000 feet AGL
overcast cloud deck at 9000 feet AGL
Weather: no significant weather observed at this time

METAR text: TFFR 190330Z AUTO VRB03KT CAVOK 22/20 Q1017 TEMPO 4000 SHRA SCT015TCU BKN020
Conditions at: TFFR (LE RAIZET , GP) observed 0330 UTC 19 January 2019
Temperature: 22.0°C (72°F)
Dewpoint: 20.0°C (68°F) [RH = 88%]
Pressure (altimeter): 30.03 inches Hg (1017.0 mb)
Winds: variable direction winds at 3 MPH (3 knots; 1.5 m/s)
Visibility: 6 or more miles (10+ km)
Ceiling: ceiling and visibility are OK
Clouds: unknown
Weather: no significant weather observed at this time

METAR text: TFFR 190300Z AUTO 07006KT 9999 FEW030 SCT094 23/20 Q1017 TEMPO 4000 SHRA SCT015TCU BKN020
Conditions at: TFFR (LE RAIZET , GP) observed 0300 UTC 19 January 2019
Temperature: 23.0°C (73°F)
Dewpoint: 20.0°C (68°F) [RH = 83%]
Pressure (altimeter): 30.03 inches Hg (1017.0 mb)
Winds: from the ENE (70 degrees) at 7 MPH (6 knots; 3.1 m/s)
Visibility: 6 or more miles (10+ km)
Ceiling: at least 12,000 feet AGL
Clouds: few clouds at 3000 feet AGL
scattered clouds at 9400 feet AGL
Weather: no significant weather observed at this time

METAR text: TFFR 190230Z AUTO 05005KT 9999 BKN030/// BKN036/// BKN094/// ///TCU 23/20 Q1017 TEMPO 4000 SHRA
Conditions at: TFFR (LE RAIZET , GP) observed 0230 UTC 19 January 2019
Temperature: 23.0°C (73°F)
Dewpoint: 20.0°C (68°F) [RH = 83%]
Pressure (altimeter): 30.03 inches Hg (1017.0 mb)
Winds: from the NE (50 degrees) at 6 MPH (5 knots; 2.6 m/s)
Visibility: 6 or more miles (10+ km)
Ceiling: 3000 feet AGL
Clouds: broken clouds at 3000 feet AGL
broken clouds at 3600 feet AGL
broken clouds at 9400 feet AGL
Weather: no significant weather observed at this time

METAR text: TFFR 190200Z AUTO 05005KT 9999 SCT030 SCT043 BKN098 23/21 Q1017 TEMPO 4000 SHRA SCT015TCU BKN020
Conditions at: TFFR (LE RAIZET , GP) observed 0200 UTC 19 January 2019
Temperature: 23.0°C (73°F)
Dewpoint: 21.0°C (70°F) [RH = 89%]
Pressure (altimeter): 30.03 inches Hg (1017.0 mb)
Winds: from the NE (50 degrees) at 6 MPH (5 knots; 2.6 m/s)
Visibility: 6 or more miles (10+ km)
Ceiling: 9800 feet AGL
Clouds: scattered clouds at 3000 feet AGL
scattered clouds at 4300 feet AGL
broken clouds at 9800 feet AGL
Weather: no significant weather observed at this time

METAR text: TFFR 190130Z AUTO 06004KT 9999 SCT030 23/21 Q1017 TEMPO 4000 SHRA SCT015TCU BKN020
Conditions at: TFFR (LE RAIZET , GP) observed 0130 UTC 19 January 2019
Temperature: 23.0°C (73°F)
Dewpoint: 21.0°C (70°F) [RH = 89%]
Pressure (altimeter): 30.03 inches Hg (1017.0 mb)
Winds: from the ENE (60 degrees) at 5 MPH (4 knots; 2.1 m/s)
Visibility: 6 or more miles (10+ km)
Ceiling: at least 12,000 feet AGL
Clouds: scattered clouds at 3000 feet AGL
Weather: no significant weather observed at this time

METAR text: TFFR 190100Z AUTO 05004KT CAVOK 23/20 Q1017 TEMPO 4000 SHRA SCT015TCU BKN020
Conditions at: TFFR (LE RAIZET , GP) observed 0100 UTC 19 January 2019
Temperature: 23.0°C (73°F)
Dewpoint: 20.0°C (68°F) [RH = 83%]
Pressure (altimeter): 30.03 inches Hg (1017.0 mb)
Winds: from the NE (50 degrees) at 5 MPH (4 knots; 2.1 m/s)
Visibility: 6 or more miles (10+ km)
Ceiling: ceiling and visibility are OK
Clouds: unknown
Weather: no significant weather observed at this time

METAR text: TFFR 190030Z AUTO 04004KT 9999 ///TCU 23/20 Q1017 TEMPO 4000 SHRA
Conditions at: TFFR (LE RAIZET , GP) observed 0030 UTC 19 January 2019
Temperature: 23.0°C (73°F)
Dewpoint: 20.0°C (68°F) [RH = 83%]
Pressure (altimeter): 30.03 inches Hg (1017.0 mb)
Winds: from the NE (40 degrees) at 5 MPH (4 knots; 2.1 m/s)
Visibility: 6 or more miles (10+ km)
Ceiling: unknown
Clouds: missing
Weather: no significant weather observed at this time

METAR text: TFFR 190000Z AUTO 04005KT CAVOK 23/20 Q1017 TEMPO 4000 SHRA SCT015TCU BKN020
Conditions at: TFFR (LE RAIZET , GP) observed 0000 UTC 19 January 2019
Temperature: 23.0°C (73°F)
Dewpoint: 20.0°C (68°F) [RH = 83%]
Pressure (altimeter): 30.03 inches Hg (1017.0 mb)
Winds: from the NE (40 degrees) at 6 MPH (5 knots; 2.6 m/s)
Visibility: 6 or more miles (10+ km)
Ceiling: ceiling and visibility are OK
Clouds: unknown
Weather: no significant weather observed at this time

METAR text: TFFR 182330Z AUTO 04005KT CAVOK 23/20 Q1017 TEMPO 4000 SHRA SCT015TCU BKN020
Conditions at: TFFR (LE RAIZET , GP) observed 2330 UTC 18 January 2019
Temperature: 23.0°C (73°F)
Dewpoint: 20.0°C (68°F) [RH = 83%]
Pressure (altimeter): 30.03 inches Hg (1017.0 mb)
Winds: from the NE (40 degrees) at 6 MPH (5 knots; 2.6 m/s)
Visibility: 6 or more miles (10+ km)
Ceiling: ceiling and visibility are OK
Clouds: unknown
Weather: no significant weather observed at this time

METAR text: TFFR 182300Z AUTO 05006KT 9999 ///TCU 24/20 Q1016 BECMG SCT030
Conditions at: TFFR (LE RAIZET , GP) observed 2300 UTC 18 January 2019
Temperature: 24.0°C (75°F)
Dewpoint: 20.0°C (68°F) [RH = 78%]
Pressure (altimeter): 30.00 inches Hg (1016.0 mb)
Winds: from the NE (50 degrees) at 7 MPH (6 knots; 3.1 m/s)
Visibility: 6 or more miles (10+ km)
Ceiling: unknown
Clouds: missing
Weather: no significant weather observed at this time

METAR text: TFFR 182230Z AUTO 05007KT 9999 FEW043/// BKN098/// ///TCU 24/20 Q1016 BECMG SCT030
Conditions at: TFFR (LE RAIZET , GP) observed 2230 UTC 18 January 2019
Temperature: 24.0°C (75°F)
Dewpoint: 20.0°C (68°F) [RH = 78%]
Pressure (altimeter): 30.00 inches Hg (1016.0 mb)
Winds: from the NE (50 degrees) at 8 MPH (7 knots; 3.6 m/s)
Visibility: 6 or more miles (10+ km)
Ceiling: 9800 feet AGL
Clouds: few clouds at 4300 feet AGL
broken clouds at 9800 feet AGL
Weather: no significant weather observed at this time

METAR text: TFFR 182200Z AUTO 04008KT 9999 FEW021/// ///TCU 25/21 Q1016 BECMG SCT030
Conditions at: TFFR (LE RAIZET , GP) observed 2200 UTC 18 January 2019
Temperature: 25.0°C (77°F)
Dewpoint: 21.0°C (70°F) [RH = 79%]
Pressure (altimeter): 30.00 inches Hg (1016.0 mb)
Winds: from the NE (40 degrees) at 9 MPH (8 knots; 4.1 m/s)
Visibility: 6 or more miles (10+ km)
Ceiling: at least 12,000 feet AGL
Clouds: few clouds at 2100 feet AGL
Weather: no significant weather observed at this time

METAR text: TFFR 182130Z AUTO 09009KT 9999 ///TCU 26/19 Q1016 BECMG SCT030
Conditions at: TFFR (LE RAIZET , GP) observed 2130 UTC 18 January 2019
Temperature: 26.0°C (79°F)
Dewpoint: 19.0°C (66°F) [RH = 65%]
Pressure (altimeter): 30.00 inches Hg (1016.0 mb)
Winds: from the E (90 degrees) at 10 MPH (9 knots; 4.6 m/s)
Visibility: 6 or more miles (10+ km)
Ceiling: unknown
Clouds: missing
Weather: no significant weather observed at this time

METAR text: TFFR 182100Z AUTO 10009KT 070V130 9999 ///TCU 27/19 Q1015 BECMG SCT030
Conditions at: TFFR (LE RAIZET , GP) observed 2100 UTC 18 January 2019
Temperature: 27.0°C (81°F)
Dewpoint: 19.0°C (66°F) [RH = 62%]
Pressure (altimeter): 29.97 inches Hg (1015.0 mb)
Winds: from the E (100 degrees) at 10 MPH (9 knots; 4.6 m/s)
Visibility: 6 or more miles (10+ km)
Ceiling: unknown
Clouds: missing
Weather: no significant weather observed at this time

METAR text: TFFR 182030Z AUTO 12010KT 090V160 9999 ///TCU 27/18 Q1015 BECMG SCT030
Conditions at: TFFR (LE RAIZET , GP) observed 2030 UTC 18 January 2019
Temperature: 27.0°C (81°F)
Dewpoint: 18.0°C (64°F) [RH = 58%]
Pressure (altimeter): 29.97 inches Hg (1015.0 mb)
Winds: from the ESE (120 degrees) at 12 MPH (10 knots; 5.1 m/s)
Visibility: 6 or more miles (10+ km)
Ceiling: unknown
Clouds: missing
Weather: no significant weather observed at this time

METAR text: TFFR 182000Z AUTO 15009KT 120V190 9999 FEW044 SCT088 28/18 Q1015 NOSIG
Conditions at: TFFR (LE RAIZET , GP) observed 2000 UTC 18 January 2019
Temperature: 28.0°C (82°F)
Dewpoint: 18.0°C (64°F) [RH = 55%]
Pressure (altimeter): 29.97 inches Hg (1015.0 mb)
Winds: from the SSE (150 degrees) at 10 MPH (9 knots; 4.6 m/s)
Visibility: 6 or more miles (10+ km)
Ceiling: at least 12,000 feet AGL
Clouds: few clouds at 4400 feet AGL
scattered clouds at 8800 feet AGL
Weather: no significant weather observed at this time

METAR text: TFFR 181930Z AUTO 13008KT 100V170 9999 FEW048 28/18 Q1015 NOSIG
Conditions at: TFFR (LE RAIZET , GP) observed 1930 UTC 18 January 2019
Temperature: 28.0°C (82°F)
Dewpoint: 18.0°C (64°F) [RH = 55%]
Pressure (altimeter): 29.97 inches Hg (1015.0 mb)
Winds: from the SE (130 degrees) at 9 MPH (8 knots; 4.1 m/s)
Visibility: 6 or more miles (10+ km)
Ceiling: at least 12,000 feet AGL
Clouds: few clouds at 4800 feet AGL
Weather: no significant weather observed at this time

METAR text: TFFR 181900Z AUTO 11007KT 040V180 9999 FEW026 SCT049 BKN056 29/19 Q1015 NOSIG
Conditions at: TFFR (LE RAIZET , GP) observed 1900 UTC 18 January 2019
Temperature: 29.0°C (84°F)
Dewpoint: 19.0°C (66°F) [RH = 55%]
Pressure (altimeter): 29.97 inches Hg (1015.0 mb)
Winds: from the ESE (110 degrees) at 8 MPH (7 knots; 3.6 m/s)
Visibility: 6 or more miles (10+ km)
Ceiling: 5600 feet AGL
Clouds: few clouds at 2600 feet AGL
scattered clouds at 4900 feet AGL
broken clouds at 5600 feet AGL
Weather: no significant weather observed at this time

METAR text: TFFR 181830Z AUTO 03008KT 9999 FEW049 28/22 Q1015 NOSIG
Conditions at: TFFR (LE RAIZET , GP) observed 1830 UTC 18 January 2019
Temperature: 28.0°C (82°F)
Dewpoint: 22.0°C (72°F) [RH = 70%]
Pressure (altimeter): 29.97 inches Hg (1015.0 mb)
Winds: from the NNE (30 degrees) at 9 MPH (8 knots; 4.1 m/s)
Visibility: 6 or more miles (10+ km)
Ceiling: at least 12,000 feet AGL
Clouds: few clouds at 4900 feet AGL
Weather: no significant weather observed at this time

METAR text: TFFR 181800Z AUTO 05009KT 360V130 9999 SCT045 SCT056 BKN066 28/21 Q1016 NOSIG
Conditions at: TFFR (LE RAIZET , GP) observed 1800 UTC 18 January 2019
Temperature: 28.0°C (82°F)
Dewpoint: 21.0°C (70°F) [RH = 66%]
Pressure (altimeter): 30.00 inches Hg (1016.0 mb)
Winds: from the NE (50 degrees) at 10 MPH (9 knots; 4.6 m/s)
Visibility: 6 or more miles (10+ km)
Ceiling: 6600 feet AGL
Clouds: scattered clouds at 4500 feet AGL
scattered clouds at 5600 feet AGL
broken clouds at 6600 feet AGL
Weather: no significant weather observed at this time

METAR text: TFFR 181730Z AUTO 15010KT 120V180 9999 FEW034 SCT041 BKN050 28/19 Q1016 NOSIG
Conditions at: TFFR (LE RAIZET , GP) observed 1730 UTC 18 January 2019
Temperature: 28.0°C (82°F)
Dewpoint: 19.0°C (66°F) [RH = 58%]
Pressure (altimeter): 30.00 inches Hg (1016.0 mb)
Winds: from the SSE (150 degrees) at 12 MPH (10 knots; 5.1 m/s)
Visibility: 6 or more miles (10+ km)
Ceiling: 5000 feet AGL
Clouds: few clouds at 3400 feet AGL
scattered clouds at 4100 feet AGL
broken clouds at 5000 feet AGL
Weather: no significant weather observed at this time

METAR text: TFFR 181700Z AUTO 14008KT 090V190 9999 BKN036 BKN043 BKN064 28/20 Q1016 NOSIG
Conditions at: TFFR (LE RAIZET , GP) observed 1700 UTC 18 January 2019
Temperature: 28.0°C (82°F)
Dewpoint: 20.0°C (68°F) [RH = 62%]
Pressure (altimeter): 30.00 inches Hg (1016.0 mb)
Winds: from the SE (140 degrees) at 9 MPH (8 knots; 4.1 m/s)
Visibility: 6 or more miles (10+ km)
Ceiling: 3600 feet AGL
Clouds: broken clouds at 3600 feet AGL
broken clouds at 4300 feet AGL
broken clouds at 6400 feet AGL
Weather: no significant weather observed at this time

METAR text: TFFR 181630Z AUTO 16010KT 130V190 9999 SCT036 BKN044 BKN082 28/20 Q1017 NOSIG
Conditions at: TFFR (LE RAIZET , GP) observed 1630 UTC 18 January 2019
Temperature: 28.0°C (82°F)
Dewpoint: 20.0°C (68°F) [RH = 62%]
Pressure (altimeter): 30.03 inches Hg (1017.0 mb)
Winds: from the SSE (160 degrees) at 12 MPH (10 knots; 5.1 m/s)
Visibility: 6 or more miles (10+ km)
Ceiling: 4400 feet AGL
Clouds: scattered clouds at 3600 feet AGL
broken clouds at 4400 feet AGL
broken clouds at 8200 feet AGL
Weather: no significant weather observed at this time

METAR text: TFFR 181600Z AUTO 15009KT 080V190 9999 SCT036/// SCT044/// BKN056/// ///CB 28/20 Q1017 BECMG SCT025
Conditions at: TFFR (LE RAIZET , GP) observed 1600 UTC 18 January 2019
Temperature: 28.0°C (82°F)
Dewpoint: 20.0°C (68°F) [RH = 62%]
Pressure (altimeter): 30.03 inches Hg (1017.0 mb)
Winds: from the SSE (150 degrees) at 10 MPH (9 knots; 4.6 m/s)
Visibility: 6 or more miles (10+ km)
Ceiling: 5600 feet AGL
Clouds: scattered clouds at 3600 feet AGL
scattered clouds at 4400 feet AGL
broken clouds at 5600 feet AGL
Weather: no significant weather observed at this time

METAR text: TFFR 181530Z AUTO 13009KT 9999 FEW040/// BKN086/// ///TCU 27/20 Q1017 BECMG SCT025
Conditions at: TFFR (LE RAIZET , GP) observed 1530 UTC 18 January 2019
Temperature: 27.0°C (81°F)
Dewpoint: 20.0°C (68°F) [RH = 66%]
Pressure (altimeter): 30.03 inches Hg (1017.0 mb)
Winds: from the SE (130 degrees) at 10 MPH (9 knots; 4.6 m/s)
Visibility: 6 or more miles (10+ km)
Ceiling: 8600 feet AGL
Clouds: few clouds at 4000 feet AGL
broken clouds at 8600 feet AGL
Weather: no significant weather observed at this time

METAR text: TFFR 181500Z AUTO 14008KT 9999 BKN035 BKN042 BKN054 28/18 Q1017 NOSIG
Conditions at: TFFR (LE RAIZET , GP) observed 1500 UTC 18 January 2019
Temperature: 28.0°C (82°F)
Dewpoint: 18.0°C (64°F) [RH = 55%]
Pressure (altimeter): 30.03 inches Hg (1017.0 mb)
Winds: from the SE (140 degrees) at 9 MPH (8 knots; 4.1 m/s)
Visibility: 6 or more miles (10+ km)
Ceiling: 3500 feet AGL
Clouds: broken clouds at 3500 feet AGL
broken clouds at 4200 feet AGL
broken clouds at 5400 feet AGL
Weather: no significant weather observed at this time

METAR text: TFFR 181430Z AUTO 13009KT 100V170 9999 BKN032 BKN041 BKN049 27/20 Q1018 NOSIG
Conditions at: TFFR (LE RAIZET , GP) observed 1430 UTC 18 January 2019
Temperature: 27.0°C (81°F)
Dewpoint: 20.0°C (68°F) [RH = 66%]
Pressure (altimeter): 30.06 inches Hg (1018.0 mb)
Winds: from the SE (130 degrees) at 10 MPH (9 knots; 4.6 m/s)
Visibility: 6 or more miles (10+ km)
Ceiling: 3200 feet AGL
Clouds: broken clouds at 3200 feet AGL
broken clouds at 4100 feet AGL
broken clouds at 4900 feet AGL
Weather: no significant weather observed at this time

METAR text: TFFR 181400Z AUTO 15003KT 040V210 9999 BKN032 BKN052 BKN072 26/20 Q1018 NOSIG
Conditions at: TFFR (LE RAIZET , GP) observed 1400 UTC 18 January 2019
Temperature: 26.0°C (79°F)
Dewpoint: 20.0°C (68°F) [RH = 70%]
Pressure (altimeter): 30.06 inches Hg (1018.0 mb)
Winds: from the SSE (150 degrees) at 3 MPH (3 knots; 1.5 m/s)
Visibility: 6 or more miles (10+ km)
Ceiling: 3200 feet AGL
Clouds: broken clouds at 3200 feet AGL
broken clouds at 5200 feet AGL
broken clouds at 7200 feet AGL
Weather: no significant weather observed at this time

METAR text: TFFR 181330Z AUTO 11005KT 9999 FEW037 25/21 Q1018 NOSIG
Conditions at: TFFR (LE RAIZET , GP) observed 1330 UTC 18 January 2019
Temperature: 25.0°C (77°F)
Dewpoint: 21.0°C (70°F) [RH = 79%]
Pressure (altimeter): 30.06 inches Hg (1018.0 mb)
Winds: from the ESE (110 degrees) at 6 MPH (5 knots; 2.6 m/s)
Visibility: 6 or more miles (10+ km)
Ceiling: at least 12,000 feet AGL
Clouds: few clouds at 3700 feet AGL
Weather: no significant weather observed at this time

METAR text: TFFR 181300Z AUTO VRB02KT CAVOK 26/21 Q1018 NOSIG
Conditions at: TFFR (LE RAIZET , GP) observed 1300 UTC 18 January 2019
Temperature: 26.0°C (79°F)
Dewpoint: 21.0°C (70°F) [RH = 74%]
Pressure (altimeter): 30.06 inches Hg (1018.0 mb)
Winds: variable direction winds at 2 MPH (2 knots; 1.0 m/s)
Visibility: 6 or more miles (10+ km)
Ceiling: ceiling and visibility are OK
Clouds: unknown
Weather: no significant weather observed at this time

METAR text: TFFR 181230Z AUTO 00000KT CAVOK 22/19 Q1018 NOSIG
Conditions at: TFFR (LE RAIZET , GP) observed 1230 UTC 18 January 2019
Temperature: 22.0°C (72°F)
Dewpoint: 19.0°C (66°F) [RH = 83%]
Pressure (altimeter): 30.06 inches Hg (1018.0 mb)
Winds: calm
Visibility: 6 or more miles (10+ km)
Ceiling: ceiling and visibility are OK
Clouds: unknown
Weather: no significant weather observed at this time

METAR text: TFFR 181200Z AUTO 00000KT CAVOK 21/20 Q1017 NOSIG
Conditions at: TFFR (LE RAIZET , GP) observed 1200 UTC 18 January 2019
Temperature: 21.0°C (70°F)
Dewpoint: 20.0°C (68°F) [RH = 94%]
Pressure (altimeter): 30.03 inches Hg (1017.0 mb)
Winds: calm
Visibility: 6 or more miles (10+ km)
Ceiling: ceiling and visibility are OK
Clouds: unknown
Weather: no significant weather observed at this time

METAR text: TFFR 181130Z AUTO 00000KT CAVOK 19/19 Q1017 NOSIG
Conditions at: TFFR (LE RAIZET , GP) observed 1130 UTC 18 January 2019
Temperature: 19.0°C (66°F)
Dewpoint: 19.0°C (66°F) [RH = 100%]
Pressure (altimeter): 30.03 inches Hg (1017.0 mb)
Winds: calm
Visibility: 6 or more miles (10+ km)
Ceiling: ceiling and visibility are OK
Clouds: unknown
Weather: no significant weather observed at this time

METAR text: TFFR 181100Z AUTO VRB01KT CAVOK 18/18 Q1017 NOSIG
Conditions at: TFFR (LE RAIZET , GP) observed 1100 UTC 18 January 2019
Temperature: 18.0°C (64°F)
Dewpoint: 18.0°C (64°F) [RH = 100%]
Pressure (altimeter): 30.03 inches Hg (1017.0 mb)
Winds: variable direction winds at 1 MPH (1 knots; 0.5 m/s)
Visibility: 6 or more miles (10+ km)
Ceiling: ceiling and visibility are OK
Clouds: unknown
Weather: no significant weather observed at this time

METAR text: TFFR 181030Z AUTO 00000KT CAVOK 17/17 Q1017 NOSIG
Conditions at: TFFR (LE RAIZET , GP) observed 1030 UTC 18 January 2019
Temperature: 17.0°C (63°F)
Dewpoint: 17.0°C (63°F) [RH = 100%]
Pressure (altimeter): 30.03 inches Hg (1017.0 mb)
Winds: calm
Visibility: 6 or more miles (10+ km)
Ceiling: ceiling and visibility are OK
Clouds: unknown
Weather: no significant weather observed at this time

METAR text: TFFR 181000Z AUTO 04002KT CAVOK 18/17 Q1016 NOSIG
Conditions at: TFFR (LE RAIZET , GP) observed 1000 UTC 18 January 2019
Temperature: 18.0°C (64°F)
Dewpoint: 17.0°C (63°F) [RH = 94%]
Pressure (altimeter): 30.00 inches Hg (1016.0 mb)
Winds: from the NE (40 degrees) at 2 MPH (2 knots; 1.0 m/s)
Visibility: 6 or more miles (10+ km)
Ceiling: ceiling and visibility are OK
Clouds: unknown
Weather: no significant weather observed at this time

METAR text: TFFR 180930Z AUTO 00000KT CAVOK 18/17 Q1016 NOSIG
Conditions at: TFFR (LE RAIZET , GP) observed 0930 UTC 18 January 2019
Temperature: 18.0°C (64°F)
Dewpoint: 17.0°C (63°F) [RH = 94%]
Pressure (altimeter): 30.00 inches Hg (1016.0 mb)
Winds: calm
Visibility: 6 or more miles (10+ km)
Ceiling: ceiling and visibility are OK
Clouds: unknown
Weather: no significant weather observed at this time

METAR text: TFFR 180900Z AUTO 14002KT CAVOK 18/17 Q1016 NOSIG
Conditions at: TFFR (LE RAIZET , GP) observed 0900 UTC 18 January 2019
Temperature: 18.0°C (64°F)
Dewpoint: 17.0°C (63°F) [RH = 94%]
Pressure (altimeter): 30.00 inches Hg (1016.0 mb)
Winds: from the SE (140 degrees) at 2 MPH (2 knots; 1.0 m/s)
Visibility: 6 or more miles (10+ km)
Ceiling: ceiling and visibility are OK
Clouds: unknown
Weather: no significant weather observed at this time

METAR text: TFFR 180830Z AUTO 15001KT 9999 FEW030 18/17 Q1016 NOSIG
Conditions at: TFFR (LE RAIZET , GP) observed 0830 UTC 18 January 2019
Temperature: 18.0°C (64°F)
Dewpoint: 17.0°C (63°F) [RH = 94%]
Pressure (altimeter): 30.00 inches Hg (1016.0 mb)
Winds: from the SSE (150 degrees) at 1 MPH (1 knots; 0.5 m/s)
Visibility: 6 or more miles (10+ km)
Ceiling: at least 12,000 feet AGL
Clouds: few clouds at 3000 feet AGL
Weather: no significant weather observed at this time

METAR text: TFFR 180800Z AUTO 01002KT CAVOK 17/17 Q1016 NOSIG
Conditions at: TFFR (LE RAIZET , GP) observed 0800 UTC 18 January 2019
Temperature: 17.0°C (63°F)
Dewpoint: 17.0°C (63°F) [RH = 100%]
Pressure (altimeter): 30.00 inches Hg (1016.0 mb)
Winds: from the N (10 degrees) at 2 MPH (2 knots; 1.0 m/s)
Visibility: 6 or more miles (10+ km)
Ceiling: ceiling and visibility are OK
Clouds: unknown
Weather: no significant weather observed at this time

METAR text: TFFR 180730Z AUTO 00000KT CAVOK 18/17 Q1016 NOSIG
Conditions at: TFFR (LE RAIZET , GP) observed 0730 UTC 18 January 2019
Temperature: 18.0°C (64°F)
Dewpoint: 17.0°C (63°F) [RH = 94%]
Pressure (altimeter): 30.00 inches Hg (1016.0 mb)
Winds: calm
Visibility: 6 or more miles (10+ km)
Ceiling: ceiling and visibility are OK
Clouds: unknown
Weather: no significant weather observed at this time

METAR text: TFFR 180700Z AUTO 00000KT CAVOK 18/18 Q1016 NOSIG
Conditions at: TFFR (LE RAIZET , GP) observed 0700 UTC 18 January 2019
Temperature: 18.0°C (64°F)
Dewpoint: 18.0°C (64°F) [RH = 100%]
Pressure (altimeter): 30.00 inches Hg (1016.0 mb)
Winds: calm
Visibility: 6 or more miles (10+ km)
Ceiling: ceiling and visibility are OK
Clouds: unknown
Weather: no significant weather observed at this time

METAR text: TFFR 180630Z AUTO 15002KT CAVOK 18/17 Q1016 NOSIG
Conditions at: TFFR (LE RAIZET , GP) observed 0630 UTC 18 January 2019
Temperature: 18.0°C (64°F)
Dewpoint: 17.0°C (63°F) [RH = 94%]
Pressure (altimeter): 30.00 inches Hg (1016.0 mb)
Winds: from the SSE (150 degrees) at 2 MPH (2 knots; 1.0 m/s)
Visibility: 6 or more miles (10+ km)
Ceiling: ceiling and visibility are OK
Clouds: unknown
Weather: no significant weather observed at this time

METAR text: TFFR 180600Z AUTO 10002KT CAVOK 18/17 Q1017 NOSIG
Conditions at: TFFR (LE RAIZET , GP) observed 0600 UTC 18 January 2019
Temperature: 18.0°C (64°F)
Dewpoint: 17.0°C (63°F) [RH = 94%]
Pressure (altimeter): 30.03 inches Hg (1017.0 mb)
Winds: from the E (100 degrees) at 2 MPH (2 knots; 1.0 m/s)
Visibility: 6 or more miles (10+ km)
Ceiling: ceiling and visibility are OK
Clouds: unknown
Weather: no significant weather observed at this time

METAR text: TFFR 180530Z AUTO 00000KT CAVOK 18/17 Q1017 NOSIG
Conditions at: TFFR (LE RAIZET , GP) observed 0530 UTC 18 January 2019
Temperature: 18.0°C (64°F)
Dewpoint: 17.0°C (63°F) [RH = 94%]
Pressure (altimeter): 30.03 inches Hg (1017.0 mb)
Winds: calm
Visibility: 6 or more miles (10+ km)
Ceiling: ceiling and visibility are OK
Clouds: unknown
Weather: no significant weather observed at this time

METAR text: TFFR 180500Z AUTO 00000KT CAVOK 18/18 Q1017 NOSIG
Conditions at: TFFR (LE RAIZET , GP) observed 0500 UTC 18 January 2019
Temperature: 18.0°C (64°F)
Dewpoint: 18.0°C (64°F) [RH = 100%]
Pressure (altimeter): 30.03 inches Hg (1017.0 mb)
Winds: calm
Visibility: 6 or more miles (10+ km)
Ceiling: ceiling and visibility are OK
Clouds: unknown
Weather: no significant weather observed at this time

METAR text: TFFR 180430Z AUTO 00000KT 9999 FEW034 19/18 Q1018 NOSIG
Conditions at: TFFR (LE RAIZET , GP) observed 0430 UTC 18 January 2019
Temperature: 19.0°C (66°F)
Dewpoint: 18.0°C (64°F) [RH = 94%]
Pressure (altimeter): 30.06 inches Hg (1018.0 mb)
Winds: calm
Visibility: 6 or more miles (10+ km)
Ceiling: at least 12,000 feet AGL
Clouds: few clouds at 3400 feet AGL
Weather: no significant weather observed at this time

METAR text: TFFR 180400Z AUTO 20001KT CAVOK 19/18 Q1018 NOSIG
Conditions at: TFFR (LE RAIZET , GP) observed 0400 UTC 18 January 2019
Temperature: 19.0°C (66°F)
Dewpoint: 18.0°C (64°F) [RH = 94%]
Pressure (altimeter): 30.06 inches Hg (1018.0 mb)
Winds: from the SSW (200 degrees) at 1 MPH (1 knots; 0.5 m/s)
Visibility: 6 or more miles (10+ km)
Ceiling: ceiling and visibility are OK
Clouds: unknown
Weather: no significant weather observed at this time

METAR text: TFFR 180330Z AUTO 00000KT CAVOK 19/18 Q1018 NOSIG
Conditions at: TFFR (LE RAIZET , GP) observed 0330 UTC 18 January 2019
Temperature: 19.0°C (66°F)
Dewpoint: 18.0°C (64°F) [RH = 94%]
Pressure (altimeter): 30.06 inches Hg (1018.0 mb)
Winds: calm
Visibility: 6 or more miles (10+ km)
Ceiling: ceiling and visibility are OK
Clouds: unknown
Weather: no significant weather observed at this time

METAR text: TFFR 180300Z AUTO 00000KT CAVOK 20/18 Q1018 NOSIG
Conditions at: TFFR (LE RAIZET , GP) observed 0300 UTC 18 January 2019
Temperature: 20.0°C (68°F)
Dewpoint: 18.0°C (64°F) [RH = 88%]
Pressure (altimeter): 30.06 inches Hg (1018.0 mb)
Winds: calm
Visibility: 6 or more miles (10+ km)
Ceiling: ceiling and visibility are OK
Clouds: unknown
Weather: no significant weather observed at this time

METAR text: TFFR 180230Z AUTO 00000KT CAVOK 20/18 Q1018 NOSIG
Conditions at: TFFR (LE RAIZET , GP) observed 0230 UTC 18 January 2019
Temperature: 20.0°C (68°F)
Dewpoint: 18.0°C (64°F) [RH = 88%]
Pressure (altimeter): 30.06 inches Hg (1018.0 mb)
Winds: calm
Visibility: 6 or more miles (10+ km)
Ceiling: ceiling and visibility are OK
Clouds: unknown
Weather: no significant weather observed at this time

METAR text: TFFR 180200Z AUTO VRB02KT CAVOK 20/18 Q1018 NOSIG
Conditions at: TFFR (LE RAIZET , GP) observed 0200 UTC 18 January 2019
Temperature: 20.0°C (68°F)
Dewpoint: 18.0°C (64°F) [RH = 88%]
Pressure (altimeter): 30.06 inches Hg (1018.0 mb)
Winds: variable direction winds at 2 MPH (2 knots; 1.0 m/s)
Visibility: 6 or more miles (10+ km)
Ceiling: ceiling and visibility are OK
Clouds: unknown
Weather: no significant weather observed at this time

METAR text: TFFR 180130Z AUTO VRB02KT CAVOK 21/18 Q1018 NOSIG
Conditions at: TFFR (LE RAIZET , GP) observed 0130 UTC 18 January 2019
Temperature: 21.0°C (70°F)
Dewpoint: 18.0°C (64°F) [RH = 83%]
Pressure (altimeter): 30.06 inches Hg (1018.0 mb)
Winds: variable direction winds at 2 MPH (2 knots; 1.0 m/s)
Visibility: 6 or more miles (10+ km)
Ceiling: ceiling and visibility are OK
Clouds: unknown
Weather: no significant weather observed at this time

METAR text: TFFR 180100Z AUTO VRB02KT CAVOK 21/18 Q1018 NOSIG
Conditions at: TFFR (LE RAIZET , GP) observed 0100 UTC 18 January 2019
Temperature: 21.0°C (70°F)
Dewpoint: 18.0°C (64°F) [RH = 83%]
Pressure (altimeter): 30.06 inches Hg (1018.0 mb)
Winds: variable direction winds at 2 MPH (2 knots; 1.0 m/s)
Visibility: 6 or more miles (10+ km)
Ceiling: ceiling and visibility are OK
Clouds: unknown
Weather: no significant weather observed at this time

METAR text: TFFR 180030Z AUTO 16002KT CAVOK 22/19 Q1018 NOSIG
Conditions at: TFFR (LE RAIZET , GP) observed 0030 UTC 18 January 2019
Temperature: 22.0°C (72°F)
Dewpoint: 19.0°C (66°F) [RH = 83%]
Pressure (altimeter): 30.06 inches Hg (1018.0 mb)
Winds: from the SSE (160 degrees) at 2 MPH (2 knots; 1.0 m/s)
Visibility: 6 or more miles (10+ km)
Ceiling: ceiling and visibility are OK
Clouds: unknown
Weather: no significant weather observed at this time

Forecast for: TFFR (LE RAIZET , GP)
Text: TAF TFFR 191000Z 1912/2012 05006KT 9999 SCT030
Forecast period: 1200 UTC 19 January 2019 to 1200 UTC 20 January 2019
Forecast type: FROM: standard forecast or significant change
Winds: from the NE (50 degrees) at 7 MPH (6 knots; 3.1 m/s)
Visibility: 6 or more miles 10+ km)
Ceiling: at least 12,000 feet AGL
Clouds: scattered clouds at 3000 feet AGL
Weather: no significant weather forecast for this period
Text: BECMG 1912/1914 11010KT
Forecast period: 1200 to 2200 UTC 19 January 2019
Forecast type: BECOMING: Conditions expected to become as follows by 1400 UTC 19 January 2019
Winds: from the ESE (110 degrees) at 12 MPH (10 knots; 5.1 m/s)
Visibility: 6 or more miles 10+ km)
Ceiling: at least 12,000 feet AGL
Clouds: scattered clouds at 3000 feet AGL
Weather: no significant weather forecast for this period
Text: BECMG 1922/1924 VRB02KT
Forecast period: 2200 UTC 19 January 2019 to 1200 UTC 20 January 2019
Forecast type: BECOMING: Conditions expected to become as follows by 0000 UTC 20 January 2019
Winds: variable direction winds at 2 MPH (2 knots; 1.0 m/s)
Visibility: 6 or more miles 10+ km)
Ceiling: at least 12,000 feet AGL
Clouds: scattered clouds at 3000 feet AGL
Weather: no significant weather forecast for this period
Text: PROB30
Forecast period: 0900 to 1200 UTC 20 January 2019
Forecast type: TEMPORARY: The following changes expected for less than half the time period
Visibility: 2.49 miles (4.01 km)
Ceiling: at least 12,000 feet AGL
Clouds: scattered clouds at 1500 feet AGL
Weather: SHRA  (rain showers)